sensor_id;sensor_type;location;lat;lon;timestamp;pressure;altitude;pressure_sealevel;temperature;humidity
80248;BME280;69560;52.206;21.018;2023-09-18T00:01:32;100372.73;;;21.27;57.54
80248;BME280;69560;52.206;21.018;2023-09-18T00:03:58;100375.46;;;21.17;57.44
80248;BME280;69560;52.206;21.018;2023-09-18T00:06:24;100371.28;;;21.09;57.35
80248;BME280;69560;52.206;21.018;2023-09-18T00:08:51;100368.34;;;21.07;57.68
80248;BME280;69560;52.206;21.018;2023-09-18T00:11:19;100363.38;;;21.05;57.80
80248;BME280;69560;52.206;21.018;2023-09-18T00:13:45;100362.38;;;21.04;57.87
80248;BME280;69560;52.206;21.018;2023-09-18T00:16:12;100360.33;;;21.00;57.88
80248;BME280;69560;52.206;21.018;2023-09-18T00:18:39;100365.10;;;20.99;57.98
80248;BME280;69560;52.206;21.018;2023-09-18T00:21:05;100363.34;;;20.95;57.69
80248;BME280;69560;52.206;21.018;2023-09-18T00:23:33;100366.89;;;20.91;57.92
80248;BME280;69560;52.206;21.018;2023-09-18T00:26:01;100363.84;;;20.91;58.14
80248;BME280;69560;52.206;21.018;2023-09-18T00:28:28;100359.67;;;20.93;58.38
80248;BME280;69560;52.206;21.018;2023-09-18T00:30:54;100362.88;;;20.93;58.38
80248;BME280;69560;52.206;21.018;2023-09-18T00:33:21;100365.27;;;20.94;58.35
80248;BME280;69560;52.206;21.018;2023-09-18T00:35:49;100368.29;;;20.93;58.32
80248;BME280;69560;52.206;21.018;2023-09-18T00:38:16;100366.50;;;20.90;58.38
80248;BME280;69560;52.206;21.018;2023-09-18T00:40:43;100365.22;;;20.90;58.41
80248;BME280;69560;52.206;21.018;2023-09-18T00:43:10;100365.67;;;20.92;58.41
80248;BME280;69560;52.206;21.018;2023-09-18T00:45:42;100367.26;;;20.93;58.53
80248;BME280;69560;52.206;21.018;2023-09-18T00:48:10;100367.20;;;20.95;58.66
80248;BME280;69560;52.206;21.018;2023-09-18T00:50:37;100367.52;;;20.95;58.51
80248;BME280;69560;52.206;21.018;2023-09-18T00:53:07;100367.21;;;20.94;58.82
80248;BME280;69560;52.206;21.018;2023-09-18T00:55:36;100364.20;;;20.93;58.77
80248;BME280;69560;52.206;21.018;2023-09-18T00:58:06;100365.19;;;20.91;58.89
80248;BME280;69560;52.206;21.018;2023-09-18T01:00:33;100368.58;;;20.91;58.90
80248;BME280;69560;52.206;21.018;2023-09-18T01:03:01;100373.19;;;20.90;58.90
80248;BME280;69560;52.206;21.018;2023-09-18T01:05:28;100373.09;;;20.91;59.01
80248;BME280;69560;52.206;21.018;2023-09-18T01:07:54;100373.96;;;20.91;58.87
80248;BME280;69560;52.206;21.018;2023-09-18T01:10:24;100375.75;;;20.87;58.97
80248;BME280;69560;52.206;21.018;2023-09-18T01:13:04;100370.81;;;20.84;58.94
80248;BME280;69560;52.206;21.018;2023-09-18T01:15:37;100368.84;;;20.82;59.08
80248;BME280;69560;52.206;21.018;2023-09-18T01:18:09;100366.88;;;20.80;59.04
80248;BME280;69560;52.206;21.018;2023-09-18T01:20:35;100365.95;;;20.77;59.02
80248;BME280;69560;52.206;21.018;2023-09-18T01:23:02;100363.34;;;20.75;59.13
80248;BME280;69560;52.206;21.018;2023-09-18T01:25:30;100363.79;;;20.77;59.11
80248;BME280;69560;52.206;21.018;2023-09-18T01:27:57;100367.55;;;20.78;58.99
80248;BME280;69560;52.206;21.018;2023-09-18T01:30:23;100365.06;;;20.77;59.14
80248;BME280;69560;52.206;21.018;2023-09-18T01:32:51;100368.30;;;20.78;59.26
80248;BME280;69560;52.206;21.018;2023-09-18T01:35:20;100371.08;;;20.76;59.29
80248;BME280;69560;52.206;21.018;2023-09-18T01:37:47;100373.67;;;20.74;59.31
80248;BME280;69560;52.206;21.018;2023-09-18T01:40:13;100373.13;;;20.73;59.37
80248;BME280;69560;52.206;21.018;2023-09-18T01:42:41;100370.38;;;20.74;59.36
80248;BME280;69560;52.206;21.018;2023-09-18T01:45:08;100367.70;;;20.74;59.26
80248;BME280;69560;52.206;21.018;2023-09-18T01:47:34;100370.73;;;20.76;59.31
80248;BME280;69560;52.206;21.018;2023-09-18T01:50:03;100368.41;;;20.75;59.25
80248;BME280;69560;52.206;21.018;2023-09-18T01:52:33;100363.77;;;20.75;59.14
80248;BME280;69560;52.206;21.018;2023-09-18T01:55:01;100362.80;;;20.73;59.15
80248;BME280;69560;52.206;21.018;2023-09-18T01:57:28;100358.51;;;20.71;59.12
80248;BME280;69560;52.206;21.018;2023-09-18T01:59:55;100355.02;;;20.69;59.30
80248;BME280;69560;52.206;21.018;2023-09-18T02:02:22;100357.21;;;20.68;59.30
80248;BME280;69560;52.206;21.018;2023-09-18T02:04:48;100355.29;;;20.67;59.11
80248;BME280;69560;52.206;21.018;2023-09-18T02:07:15;100346.67;;;20.67;59.29
80248;BME280;69560;52.206;21.018;2023-09-18T02:09:41;100346.73;;;20.68;59.22
80248;BME280;69560;52.206;21.018;2023-09-18T02:12:08;100346.49;;;20.68;59.25
80248;BME280;69560;52.206;21.018;2023-09-18T02:14:34;100350.30;;;20.67;59.37
80248;BME280;69560;52.206;21.018;2023-09-18T02:17:01;100346.55;;;20.65;59.25
80248;BME280;69560;52.206;21.018;2023-09-18T02:19:27;100349.49;;;20.62;59.19
80248;BME280;69560;52.206;21.018;2023-09-18T02:21:56;100344.82;;;20.59;59.48
80248;BME280;69560;52.206;21.018;2023-09-18T02:24:23;100347.89;;;20.58;59.45
80248;BME280;69560;52.206;21.018;2023-09-18T02:26:50;100340.56;;;20.58;59.57
80248;BME280;69560;52.206;21.018;2023-09-18T02:29:16;100345.31;;;20.59;59.48
80248;BME280;69560;52.206;21.018;2023-09-18T02:31:43;100338.79;;;20.59;59.39
80248;BME280;69560;52.206;21.018;2023-09-18T02:34:09;100341.04;;;20.59;59.45
80248;BME280;69560;52.206;21.018;2023-09-18T02:36:36;100336.48;;;20.58;59.51
80248;BME280;69560;52.206;21.018;2023-09-18T02:39:03;100331.59;;;20.56;59.61
80248;BME280;69560;52.206;21.018;2023-09-18T02:41:29;100331.24;;;20.54;59.58
80248;BME280;69560;52.206;21.018;2023-09-18T02:43:56;100330.78;;;20.53;59.55
80248;BME280;69560;52.206;21.018;2023-09-18T02:46:22;100331.63;;;20.51;59.65
80248;BME280;69560;52.206;21.018;2023-09-18T02:48:49;100332.52;;;20.50;59.65
80248;BME280;69560;52.206;21.018;2023-09-18T02:51:15;100333.09;;;20.46;59.42
80248;BME280;69560;52.206;21.018;2023-09-18T02:53:42;100331.98;;;20.37;59.42
80248;BME280;69560;52.206;21.018;2023-09-18T02:56:09;100331.63;;;20.30;59.58
80248;BME280;69560;52.206;21.018;2023-09-18T02:58:35;100330.17;;;20.26;59.92
80248;BME280;69560;52.206;21.018;2023-09-18T03:01:02;100330.60;;;20.25;59.85
80248;BME280;69560;52.206;21.018;2023-09-18T03:03:31;100325.84;;;20.21;59.83
80248;BME280;69560;52.206;21.018;2023-09-18T03:06:02;100325.33;;;20.17;59.95
80248;BME280;69560;52.206;21.018;2023-09-18T03:08:29;100323.40;;;20.17;59.98
80248;BME280;69560;52.206;21.018;2023-09-18T03:10:56;100325.81;;;20.03;59.54
80248;BME280;69560;52.206;21.018;2023-09-18T03:13:22;100326.38;;;19.95;59.96
80248;BME280;69560;52.206;21.018;2023-09-18T03:15:49;100326.03;;;19.91;60.18
80248;BME280;69560;52.206;21.018;2023-09-18T03:18:16;100324.84;;;19.91;60.48
80248;BME280;69560;52.206;21.018;2023-09-18T03:20:42;100324.93;;;19.89;60.53
80248;BME280;69560;52.206;21.018;2023-09-18T03:23:09;100331.25;;;19.92;60.58
80248;BME280;69560;52.206;21.018;2023-09-18T03:25:36;100328.94;;;19.91;60.57
80248;BME280;69560;52.206;21.018;2023-09-18T03:28:05;100323.53;;;19.92;60.53
80248;BME280;69560;52.206;21.018;2023-09-18T03:30:32;100321.60;;;19.92;60.76
80248;BME280;69560;52.206;21.018;2023-09-18T03:32:58;100321.54;;;19.91;60.81
80248;BME280;69560;52.206;21.018;2023-09-18T03:35:28;100324.10;;;19.86;60.50
80248;BME280;69560;52.206;21.018;2023-09-18T03:37:55;100319.10;;;19.87;60.73
80248;BME280;69560;52.206;21.018;2023-09-18T03:40:22;100321.80;;;19.89;60.78
80248;BME280;69560;52.206;21.018;2023-09-18T03:42:49;100328.09;;;19.93;60.71
80248;BME280;69560;52.206;21.018;2023-09-18T03:45:16;100330.37;;;19.96;60.86
80248;BME280;69560;52.206;21.018;2023-09-18T03:47:45;100332.81;;;19.99;60.85
80248;BME280;69560;52.206;21.018;2023-09-18T03:50:12;100334.71;;;20.00;60.79
80248;BME280;69560;52.206;21.018;2023-09-18T03:52:39;100331.34;;;20.01;60.85
80248;BME280;69560;52.206;21.018;2023-09-18T03:55:07;100331.18;;;20.00;60.72
80248;BME280;69560;52.206;21.018;2023-09-18T03:57:34;100331.19;;;19.99;60.92
80248;BME280;69560;52.206;21.018;2023-09-18T04:00:00;100333.13;;;19.99;60.79
80248;BME280;69560;52.206;21.018;2023-09-18T04:02:27;100329.33;;;20.01;60.84
80248;BME280;69560;52.206;21.018;2023-09-18T04:04:53;100328.42;;;20.02;60.80
80248;BME280;69560;52.206;21.018;2023-09-18T04:07:21;100321.23;;;20.03;60.79
80248;BME280;69560;52.206;21.018;2023-09-18T04:09:47;100317.73;;;20.01;60.76
80248;BME280;69560;52.206;21.018;2023-09-18T04:12:14;100323.12;;;20.01;60.83
80248;BME280;69560;52.206;21.018;2023-09-18T04:14:41;100324.00;;;20.01;60.88
80248;BME280;69560;52.206;21.018;2023-09-18T04:17:08;100319.98;;;20.01;60.89
80248;BME280;69560;52.206;21.018;2023-09-18T04:19:34;100316.74;;;20.02;61.03
80248;BME280;69560;52.206;21.018;2023-09-18T04:22:01;100317.35;;;20.04;60.79
80248;BME280;69560;52.206;21.018;2023-09-18T04:24:28;100313.31;;;20.05;60.84
80248;BME280;69560;52.206;21.018;2023-09-18T04:26:55;100310.96;;;20.06;60.92
80248;BME280;69560;52.206;21.018;2023-09-18T04:29:21;100309.73;;;20.07;60.88
80248;BME280;69560;52.206;21.018;2023-09-18T04:31:48;100309.98;;;20.07;60.97
80248;BME280;69560;52.206;21.018;2023-09-18T04:34:15;100307.02;;;20.06;60.85
80248;BME280;69560;52.206;21.018;2023-09-18T04:36:41;100307.20;;;20.05;60.88
80248;BME280;69560;52.206;21.018;2023-09-18T04:39:10;100299.39;;;20.05;60.86
80248;BME280;69560;52.206;21.018;2023-09-18T04:41:36;100299.94;;;20.06;61.03
80248;BME280;69560;52.206;21.018;2023-09-18T04:44:03;100301.35;;;20.08;60.99
80248;BME280;69560;52.206;21.018;2023-09-18T04:46:31;100303.34;;;20.09;60.97
80248;BME280;69560;52.206;21.018;2023-09-18T04:48:57;100302.13;;;20.09;60.96
80248;BME280;69560;52.206;21.018;2023-09-18T04:51:24;100305.46;;;20.08;60.91
80248;BME280;69560;52.206;21.018;2023-09-18T04:53:50;100304.25;;;20.04;60.94
80248;BME280;69560;52.206;21.018;2023-09-18T04:56:18;100303.13;;;19.98;60.90
80248;BME280;69560;52.206;21.018;2023-09-18T04:58:46;100300.96;;;19.95;61.03
80248;BME280;69560;52.206;21.018;2023-09-18T05:01:13;100298.33;;;19.89;60.69
80248;BME280;69560;52.206;21.018;2023-09-18T05:03:39;100300.06;;;19.82;60.80
80248;BME280;69560;52.206;21.018;2023-09-18T05:06:06;100298.05;;;19.72;60.84
80248;BME280;69560;52.206;21.018;2023-09-18T05:08:32;100295.81;;;19.71;61.18
80248;BME280;69560;52.206;21.018;2023-09-18T05:10:59;100298.38;;;19.72;61.36
80248;BME280;69560;52.206;21.018;2023-09-18T05:13:25;100293.02;;;19.74;61.54
80248;BME280;69560;52.206;21.018;2023-09-18T05:15:52;100293.29;;;19.78;61.51
80248;BME280;69560;52.206;21.018;2023-09-18T05:18:18;100290.28;;;19.79;61.50
80248;BME280;69560;52.206;21.018;2023-09-18T05:20:45;100286.98;;;19.70;61.35
80248;BME280;69560;52.206;21.018;2023-09-18T05:23:11;100282.87;;;19.66;61.16
80248;BME280;69560;52.206;21.018;2023-09-18T05:25:39;100282.79;;;19.67;61.53
80248;BME280;69560;52.206;21.018;2023-09-18T05:28:08;100284.23;;;19.67;61.64
80248;BME280;69560;52.206;21.018;2023-09-18T05:30:35;100281.70;;;19.61;61.39
80248;BME280;69560;52.206;21.018;2023-09-18T05:33:06;100279.23;;;19.54;61.26
80248;BME280;69560;52.206;21.018;2023-09-18T05:35:35;100276.57;;;19.50;61.52
80248;BME280;69560;52.206;21.018;2023-09-18T05:38:05;100273.33;;;19.51;61.61
80248;BME280;69560;52.206;21.018;2023-09-18T05:40:32;100269.39;;;19.47;61.59
80248;BME280;69560;52.206;21.018;2023-09-18T05:42:59;100266.74;;;19.46;61.86
80248;BME280;69560;52.206;21.018;2023-09-18T05:45:26;100263.23;;;19.49;62.16
80248;BME280;69560;52.206;21.018;2023-09-18T05:47:54;100264.19;;;19.55;62.28
80248;BME280;69560;52.206;21.018;2023-09-18T05:50:20;100260.70;;;19.61;62.33
80248;BME280;69560;52.206;21.018;2023-09-18T05:52:47;100256.23;;;19.68;62.47
80248;BME280;69560;52.206;21.018;2023-09-18T05:55:18;100251.66;;;19.76;62.24
80248;BME280;69560;52.206;21.018;2023-09-18T05:57:44;100252.16;;;19.84;62.23
80248;BME280;69560;52.206;21.018;2023-09-18T06:00:11;100253.77;;;19.84;62.06
80248;BME280;69560;52.206;21.018;2023-09-18T06:02:40;100255.07;;;19.84;62.05
80248;BME280;69560;52.206;21.018;2023-09-18T06:05:07;100244.40;;;19.82;62.09
80248;BME280;69560;52.206;21.018;2023-09-18T06:07:33;100248.05;;;19.85;62.23
80248;BME280;69560;52.206;21.018;2023-09-18T06:10:00;100249.69;;;19.83;62.09
80248;BME280;69560;52.206;21.018;2023-09-18T06:12:26;100252.31;;;19.85;62.21
80248;BME280;69560;52.206;21.018;2023-09-18T06:14:53;100254.13;;;19.92;62.25
80248;BME280;69560;52.206;21.018;2023-09-18T06:17:19;100251.84;;;19.97;62.20
80248;BME280;69560;52.206;21.018;2023-09-18T06:19:46;100253.02;;;19.99;62.16
80248;BME280;69560;52.206;21.018;2023-09-18T06:22:13;100252.74;;;20.05;62.45
80248;BME280;69560;52.206;21.018;2023-09-18T06:24:40;100250.28;;;20.11;62.59
80248;BME280;69560;52.206;21.018;2023-09-18T06:27:06;100255.19;;;20.16;62.56
80248;BME280;69560;52.206;21.018;2023-09-18T06:29:33;100253.56;;;20.18;62.40
80248;BME280;69560;52.206;21.018;2023-09-18T06:32:00;100253.89;;;20.22;62.36
80248;BME280;69560;52.206;21.018;2023-09-18T06:34:27;100252.90;;;20.27;62.43
80248;BME280;69560;52.206;21.018;2023-09-18T06:36:56;100253.55;;;20.31;62.19
80248;BME280;69560;52.206;21.018;2023-09-18T06:39:23;100252.29;;;20.37;62.48
80248;BME280;69560;52.206;21.018;2023-09-18T06:41:51;100247.70;;;20.46;62.60
80248;BME280;69560;52.206;21.018;2023-09-18T06:44:17;100249.42;;;20.55;62.54
80248;BME280;69560;52.206;21.018;2023-09-18T06:46:44;100246.89;;;20.64;62.61
80248;BME280;69560;52.206;21.018;2023-09-18T06:49:11;100247.53;;;20.71;62.61
80248;BME280;69560;52.206;21.018;2023-09-18T06:51:37;100246.35;;;20.82;62.50
80248;BME280;69560;52.206;21.018;2023-09-18T06:54:04;100245.85;;;20.93;62.46
80248;BME280;69560;52.206;21.018;2023-09-18T06:56:30;100238.89;;;21.02;62.48
80248;BME280;69560;52.206;21.018;2023-09-18T06:58:57;100239.98;;;21.11;62.35
80248;BME280;69560;52.206;21.018;2023-09-18T07:01:23;100241.66;;;21.18;62.21
80248;BME280;69560;52.206;21.018;2023-09-18T07:03:51;100239.32;;;21.22;62.09
80248;BME280;69560;52.206;21.018;2023-09-18T07:06:17;100243.45;;;21.24;61.92
80248;BME280;69560;52.206;21.018;2023-09-18T07:08:48;100240.34;;;21.26;61.89
80248;BME280;69560;52.206;21.018;2023-09-18T07:11:17;100244.98;;;21.31;61.83
80248;BME280;69560;52.206;21.018;2023-09-18T07:13:44;100243.60;;;21.38;62.03
80248;BME280;69560;52.206;21.018;2023-09-18T07:16:10;100238.20;;;21.44;61.89
80248;BME280;69560;52.206;21.018;2023-09-18T07:18:37;100239.20;;;21.52;61.98
80248;BME280;69560;52.206;21.018;2023-09-18T07:21:04;100243.40;;;21.61;62.02
80248;BME280;69560;52.206;21.018;2023-09-18T07:23:31;100245.02;;;21.68;62.00
80248;BME280;69560;52.206;21.018;2023-09-18T07:25:57;100246.48;;;21.76;61.95
80248;BME280;69560;52.206;21.018;2023-09-18T07:28:24;100240.44;;;21.83;61.90
80248;BME280;69560;52.206;21.018;2023-09-18T07:30:51;100241.63;;;21.95;61.81
80248;BME280;69560;52.206;21.018;2023-09-18T07:33:18;100240.56;;;22.05;61.77
80248;BME280;69560;52.206;21.018;2023-09-18T07:35:50;100235.35;;;22.13;61.63
80248;BME280;69560;52.206;21.018;2023-09-18T07:38:19;100235.48;;;22.22;61.77
80248;BME280;69560;52.206;21.018;2023-09-18T07:40:46;100232.80;;;22.28;61.69
80248;BME280;69560;52.206;21.018;2023-09-18T07:43:14;100234.58;;;22.37;61.54
80248;BME280;69560;52.206;21.018;2023-09-18T07:45:40;100234.48;;;22.42;61.43
80248;BME280;69560;52.206;21.018;2023-09-18T07:48:08;100233.51;;;22.52;61.28
80248;BME280;69560;52.206;21.018;2023-09-18T07:50:35;100236.36;;;22.62;61.19
80248;BME280;69560;52.206;21.018;2023-09-18T07:53:02;100237.17;;;22.70;61.15
80248;BME280;69560;52.206;21.018;2023-09-18T07:55:29;100236.23;;;22.80;61.14
80248;BME280;69560;52.206;21.018;2023-09-18T07:57:56;100235.19;;;22.87;60.78
80248;BME280;69560;52.206;21.018;2023-09-18T08:00:25;100234.85;;;22.85;60.33
80248;BME280;69560;52.206;21.018;2023-09-18T08:02:54;100234.05;;;22.89;60.57
80248;BME280;69560;52.206;21.018;2023-09-18T08:05:24;100233.23;;;22.98;60.57
80248;BME280;69560;52.206;21.018;2023-09-18T08:07:54;100232.31;;;23.07;60.49
80248;BME280;69560;52.206;21.018;2023-09-18T08:10:25;100228.15;;;23.13;60.19
80248;BME280;69560;52.206;21.018;2023-09-18T08:12:52;100224.74;;;23.18;60.08
80248;BME280;69560;52.206;21.018;2023-09-18T08:15:19;100223.58;;;23.26;60.18
80248;BME280;69560;52.206;21.018;2023-09-18T08:17:47;100220.48;;;23.30;60.03
80248;BME280;69560;52.206;21.018;2023-09-18T08:20:15;100219.78;;;23.37;60.07
80248;BME280;69560;52.206;21.018;2023-09-18T08:22:43;100215.35;;;23.46;60.03
80248;BME280;69560;52.206;21.018;2023-09-18T08:25:11;100210.48;;;23.58;59.92
80248;BME280;69560;52.206;21.018;2023-09-18T08:27:38;100215.50;;;23.67;59.69
80248;BME280;69560;52.206;21.018;2023-09-18T08:30:11;100214.85;;;23.72;59.20
80248;BME280;69560;52.206;21.018;2023-09-18T08:32:38;100218.23;;;23.75;59.32
80248;BME280;69560;52.206;21.018;2023-09-18T08:35:06;100213.84;;;23.85;59.44
80248;BME280;69560;52.206;21.018;2023-09-18T08:37:32;100213.02;;;23.96;59.44
80248;BME280;69560;52.206;21.018;2023-09-18T08:39:59;100215.08;;;24.07;59.48
80248;BME280;69560;52.206;21.018;2023-09-18T08:42:30;100209.63;;;24.15;59.21
80248;BME280;69560;52.206;21.018;2023-09-18T08:45:01;100208.05;;;24.24;59.18
80248;BME280;69560;52.206;21.018;2023-09-18T08:47:30;100206.25;;;24.32;58.97
80248;BME280;69560;52.206;21.018;2023-09-18T08:49:58;100205.35;;;24.47;58.79
80248;BME280;69560;52.206;21.018;2023-09-18T08:52:27;100201.05;;;24.82;58.56
80248;BME280;69560;52.206;21.018;2023-09-18T08:54:54;100201.69;;;25.13;58.39
80248;BME280;69560;52.206;21.018;2023-09-18T08:57:23;100190.54;;;25.53;58.18
80248;BME280;69560;52.206;21.018;2023-09-18T08:59:50;100189.95;;;25.89;58.06
80248;BME280;69560;52.206;21.018;2023-09-18T09:02:19;100181.30;;;26.06;57.61
80248;BME280;69560;52.206;21.018;2023-09-18T09:04:45;100182.95;;;26.29;57.12
80248;BME280;69560;52.206;21.018;2023-09-18T09:07:12;100180.81;;;26.42;56.64
80248;BME280;69560;52.206;21.018;2023-09-18T09:09:39;100178.27;;;26.46;56.00
80248;BME280;69560;52.206;21.018;2023-09-18T09:12:08;100184.57;;;26.48;55.82
80248;BME280;69560;52.206;21.018;2023-09-18T09:14:34;100180.31;;;26.48;55.62
80248;BME280;69560;52.206;21.018;2023-09-18T09:17:01;100181.63;;;26.53;55.33
80248;BME280;69560;52.206;21.018;2023-09-18T09:19:32;100185.67;;;26.58;55.08
80248;BME280;69560;52.206;21.018;2023-09-18T09:22:01;100185.43;;;26.61;54.81
80248;BME280;69560;52.206;21.018;2023-09-18T09:24:43;100182.80;;;26.63;54.79
80248;BME280;69560;52.206;21.018;2023-09-18T09:27:10;100181.63;;;26.68;54.71
80248;BME280;69560;52.206;21.018;2023-09-18T09:29:37;100179.07;;;26.72;54.33
80248;BME280;69560;52.206;21.018;2023-09-18T09:34:41;100175.63;;;26.81;53.61
80248;BME280;69560;52.206;21.018;2023-09-18T09:37:08;100168.73;;;26.91;53.53
80248;BME280;69560;52.206;21.018;2023-09-18T09:39:35;100167.20;;;27.07;53.38
80248;BME280;69560;52.206;21.018;2023-09-18T09:42:02;100166.58;;;27.24;52.84
80248;BME280;69560;52.206;21.018;2023-09-18T09:44:33;100163.71;;;27.51;52.30
80248;BME280;69560;52.206;21.018;2023-09-18T09:46:59;100158.05;;;27.87;52.01
80248;BME280;69560;52.206;21.018;2023-09-18T09:49:26;100159.27;;;28.27;51.21
80248;BME280;69560;52.206;21.018;2023-09-18T09:51:59;100159.66;;;28.59;50.45
80248;BME280;69560;52.206;21.018;2023-09-18T09:54:32;100156.38;;;29.02;49.82
80248;BME280;69560;52.206;21.018;2023-09-18T09:57:05;100148.90;;;29.70;49.46
80248;BME280;69560;52.206;21.018;2023-09-18T09:59:32;100150.20;;;30.23;48.84
80248;BME280;69560;52.206;21.018;2023-09-18T10:02:02;100148.96;;;30.77;48.65
80248;BME280;69560;52.206;21.018;2023-09-18T10:04:29;100144.89;;;31.44;47.47
80248;BME280;69560;52.206;21.018;2023-09-18T10:07:05;100144.30;;;32.17;45.93
80248;BME280;69560;52.206;21.018;2023-09-18T10:09:39;100142.71;;;33.60;45.14
80248;BME280;69560;52.206;21.018;2023-09-18T10:12:11;100138.42;;;35.80;43.76
80248;BME280;69560;52.206;21.018;2023-09-18T10:14:38;100145.16;;;37.80;40.75
80248;BME280;69560;52.206;21.018;2023-09-18T10:17:18;100138.91;;;39.26;39.13
80248;BME280;69560;52.206;21.018;2023-09-18T10:19:58;100132.49;;;41.33;37.98
80248;BME280;69560;52.206;21.018;2023-09-18T10:22:38;100130.85;;;43.59;36.25
80248;BME280;69560;52.206;21.018;2023-09-18T10:25:29;100132.17;;;45.18;33.98
80248;BME280;69560;52.206;21.018;2023-09-18T10:27:57;100131.33;;;46.89;32.07
80248;BME280;69560;52.206;21.018;2023-09-18T10:30:29;100132.86;;;48.06;30.34
80248;BME280;69560;52.206;21.018;2023-09-18T10:32:56;100124.98;;;49.19;28.41
80248;BME280;69560;52.206;21.018;2023-09-18T10:35:24;100128.60;;;49.78;26.61
80248;BME280;69560;52.206;21.018;2023-09-18T10:37:54;100127.90;;;50.23;24.89
80248;BME280;69560;52.206;21.018;2023-09-18T10:40:21;100124.32;;;50.33;23.81
80248;BME280;69560;52.206;21.018;2023-09-18T10:42:48;100120.52;;;50.46;22.50
80248;BME280;69560;52.206;21.018;2023-09-18T10:45:16;100114.37;;;50.11;21.70
80248;BME280;69560;52.206;21.018;2023-09-18T10:47:44;100113.33;;;50.29;21.24
80248;BME280;69560;52.206;21.018;2023-09-18T10:50:22;100104.94;;;50.55;21.19
80248;BME280;69560;52.206;21.018;2023-09-18T10:52:49;100112.06;;;51.09;20.58
80248;BME280;69560;52.206;21.018;2023-09-18T10:55:16;100109.69;;;50.92;19.84
80248;BME280;69560;52.206;21.018;2023-09-18T10:57:53;100100.29;;;50.99;19.81
80248;BME280;69560;52.206;21.018;2023-09-18T11:00:23;100097.05;;;51.32;19.58
80248;BME280;69560;52.206;21.018;2023-09-18T11:02:51;100099.20;;;50.95;19.85
80248;BME280;69560;52.206;21.018;2023-09-18T11:05:35;100096.44;;;49.83;19.76
80248;BME280;69560;52.206;21.018;2023-09-18T11:08:28;100096.72;;;48.04;19.37
80248;BME280;69560;52.206;21.018;2023-09-18T11:10:59;100086.87;;;46.38;19.32
80248;BME280;69560;52.206;21.018;2023-09-18T11:13:34;100082.58;;;44.70;19.44
80248;BME280;69560;52.206;21.018;2023-09-18T11:16:17;100079.58;;;43.63;19.37
80248;BME280;69560;52.206;21.018;2023-09-18T11:18:52;100074.11;;;42.74;19.21
80248;BME280;69560;52.206;21.018;2023-09-18T11:21:27;100071.83;;;42.89;20.67
80248;BME280;69560;52.206;21.018;2023-09-18T11:24:08;100072.20;;;44.04;21.01
80248;BME280;69560;52.206;21.018;2023-09-18T11:26:43;100068.91;;;45.45;20.78
80248;BME280;69560;52.206;21.018;2023-09-18T11:29:12;100073.67;;;46.06;19.66
80248;BME280;69560;52.206;21.018;2023-09-18T11:34:27;100064.75;;;45.75;19.87
80248;BME280;69560;52.206;21.018;2023-09-18T11:36:55;100062.45;;;46.97;20.00
80248;BME280;69560;52.206;21.018;2023-09-18T11:39:39;100064.72;;;48.00;19.63
80248;BME280;69560;52.206;21.018;2023-09-18T11:44:38;100071.00;;;47.48;18.74
80248;BME280;69560;52.206;21.018;2023-09-18T11:47:10;100067.11;;;48.36;18.90
80248;BME280;69560;52.206;21.018;2023-09-18T11:49:56;100063.73;;;48.94;18.26
80248;BME280;69560;52.206;21.018;2023-09-18T11:52:28;100060.66;;;49.10;17.83
80248;BME280;69560;52.206;21.018;2023-09-18T11:54:57;100058.51;;;48.83;17.01
80248;BME280;69560;52.206;21.018;2023-09-18T11:57:25;100055.66;;;48.64;17.31
80248;BME280;69560;52.206;21.018;2023-09-18T11:59:51;100051.30;;;48.76;17.55
80248;BME280;69560;52.206;21.018;2023-09-18T12:02:26;100061.17;;;48.65;16.79
80248;BME280;69560;52.206;21.018;2023-09-18T12:04:54;100051.80;;;47.11;16.30
80248;BME280;69560;52.206;21.018;2023-09-18T12:07:21;100049.98;;;46.14;17.09
80248;BME280;69560;52.206;21.018;2023-09-18T12:09:49;100040.95;;;44.85;17.78
80248;BME280;69560;52.206;21.018;2023-09-18T12:12:16;100037.95;;;44.27;18.60
80248;BME280;69560;52.206;21.018;2023-09-18T12:14:44;100035.77;;;43.61;19.30
80248;BME280;69560;52.206;21.018;2023-09-18T12:17:14;100039.67;;;42.70;19.74
80248;BME280;69560;52.206;21.018;2023-09-18T12:19:51;100030.74;;;41.62;20.13
80248;BME280;69560;52.206;21.018;2023-09-18T12:22:29;100029.85;;;40.72;20.63
80248;BME280;69560;52.206;21.018;2023-09-18T12:25:13;100025.83;;;39.74;20.68
80248;BME280;69560;52.206;21.018;2023-09-18T12:27:41;100032.34;;;38.60;21.32
80248;BME280;69560;52.206;21.018;2023-09-18T12:30:08;100023.98;;;37.62;21.88
80248;BME280;69560;52.206;21.018;2023-09-18T12:32:39;100025.73;;;36.72;22.59
80248;BME280;69560;52.206;21.018;2023-09-18T12:35:06;100015.14;;;36.09;23.44
80248;BME280;69560;52.206;21.018;2023-09-18T12:37:40;100010.75;;;35.58;24.07
80248;BME280;69560;52.206;21.018;2023-09-18T12:40:20;100004.77;;;35.05;24.58
80248;BME280;69560;52.206;21.018;2023-09-18T12:42:49;100005.36;;;34.59;25.25
80248;BME280;69560;52.206;21.018;2023-09-18T12:45:15;100007.41;;;34.32;25.91
80248;BME280;69560;52.206;21.018;2023-09-18T12:47:43;100003.79;;;33.92;26.03
80248;BME280;69560;52.206;21.018;2023-09-18T12:50:12;100006.63;;;33.68;26.72
80248;BME280;69560;52.206;21.018;2023-09-18T12:52:40;100003.30;;;33.56;27.33
80248;BME280;69560;52.206;21.018;2023-09-18T12:55:08;100002.83;;;33.45;27.52